createdAt,value
2019-04-11T00:01:32.549Z,10.17
2019-04-11T00:06:27.612Z,7.57
2019-04-11T00:11:31.949Z,14.20
2019-04-11T00:16:37.139Z,9.00
2019-04-11T00:21:41.605Z,9.97
2019-04-11T00:26:46.588Z,9.07
2019-04-11T00:31:50.788Z,9.63
2019-04-11T00:36:54.970Z,10.00
2019-04-11T00:41:59.175Z,9.67
2019-04-11T00:47:03.412Z,9.90
2019-04-11T00:52:08.635Z,12.77
2019-04-11T00:57:12.917Z,10.93
2019-04-11T01:02:17.735Z,9.50
2019-04-11T01:07:22.771Z,9.63
2019-04-11T01:12:27.111Z,10.13
2019-04-11T01:17:31.591Z,11.10
2019-04-11T01:22:35.813Z,11.47
2019-04-11T01:27:41.151Z,7.27
2019-04-11T01:32:46.467Z,14.23
2019-04-11T01:37:50.786Z,11.27
2019-04-11T01:42:55.528Z,8.03
2019-04-11T01:48:15.364Z,9.03
2019-04-11T01:53:19.630Z,10.43
2019-04-11T01:58:24.621Z,8.57
2019-04-11T02:03:39.315Z,10.77
2019-04-11T02:08:43.860Z,9.20
2019-04-11T02:13:48.259Z,8.83
2019-04-11T02:18:52.480Z,9.60
2019-04-11T02:24:02.304Z,7.93
2019-04-11T02:29:06.891Z,10.57
2019-04-11T02:34:11.850Z,8.90
2019-04-11T02:39:19.606Z,7.97
2019-04-11T02:44:49.642Z,8.97
2019-04-11T02:49:30.946Z,7.63
2019-04-11T02:54:36.615Z,7.43
2019-04-11T02:59:44.459Z,7.97
2019-04-11T03:04:48.175Z,8.43
2019-04-11T03:09:53.549Z,10.23
2019-04-11T03:15:16.121Z,9.53
2019-04-11T03:20:15.458Z,8.57
2019-04-11T03:25:11.705Z,8.80
2019-04-11T03:30:24.937Z,10.13
2019-04-11T03:40:48.132Z,9.27
2019-04-11T03:45:56.286Z,9.60
2019-04-11T03:50:42.467Z,9.27
2019-04-11T03:55:47.499Z,9.90
2019-04-11T04:00:53.618Z,11.40
2019-04-11T04:05:59.945Z,10.57
2019-04-11T04:11:19.021Z,10.77
2019-04-11T04:16:40.347Z,12.03
2019-04-11T04:21:47.099Z,7.90
2019-04-11T04:26:52.609Z,9.50
2019-04-11T04:31:59.365Z,10.83
2019-04-11T04:37:05.730Z,8.10
2019-04-11T04:42:21.168Z,9.73
2019-04-11T04:47:23.676Z,9.97
2019-04-11T04:52:22.297Z,10.87
2019-04-11T04:57:26.851Z,8.47
2019-04-11T05:02:32.764Z,10.63
2019-04-11T05:07:40.414Z,13.57
2019-04-11T05:12:43.981Z,13.20
2019-04-11T05:17:49.168Z,9.37
2019-04-11T05:22:53.651Z,8.00
2019-04-11T05:27:58.177Z,10.47
2019-04-11T05:33:02.413Z,7.93
2019-04-11T05:38:06.613Z,7.13
2019-04-11T05:43:11.460Z,10.47
2019-04-11T05:48:34.836Z,8.67
2019-04-11T05:53:39.032Z,8.53
2019-04-11T05:58:45.724Z,12.57
2019-04-11T06:03:50.938Z,20.43
2019-04-11T06:09:00.612Z,11.20
2019-04-11T06:14:15.456Z,8.63
2019-04-11T06:19:54.039Z,16.33
2019-04-11T06:25:19.290Z,8.90
2019-04-11T06:30:42.355Z,9.93
2019-04-11T06:36:21.051Z,10.37
2019-04-11T06:41:46.989Z,12.87
2019-04-11T06:47:16.696Z,11.27
2019-04-11T06:52:21.032Z,13.40
2019-04-11T06:57:27.074Z,20.77
2019-04-11T07:02:32.215Z,10.63
2019-04-11T07:07:37.675Z,13.77
2019-04-11T07:12:47.158Z,12.07
2019-04-11T07:18:09.856Z,10.47
2019-04-11T07:23:32.918Z,10.97
2019-04-11T07:28:54.945Z,12.63
2019-04-11T07:34:31.451Z,13.17
2019-04-11T07:39:56.219Z,10.70
2019-04-11T07:45:04.232Z,12.80
2019-04-11T07:50:10.015Z,10.43
2019-04-11T07:55:14.305Z,7.47
2019-04-11T08:00:44.250Z,13.33
2019-04-11T08:06:17.437Z,9.03
2019-04-11T08:11:36.027Z,9.53
2019-04-11T08:17:28.187Z,12.07
2019-04-11T08:22:33.079Z,6.17
2019-04-11T08:27:55.949Z,11.30
2019-04-11T08:32:55.269Z,5.73
2019-04-11T08:38:02.798Z,4.17
2019-04-11T08:43:09.281Z,9.93
2019-04-11T08:48:13.521Z,4.77
2019-04-11T08:53:35.091Z,6.73
2019-04-11T08:58:57.278Z,2.77
2019-04-11T09:04:32.642Z,4.23
2019-04-11T09:10:04.678Z,5.37
2019-04-11T09:15:28.695Z,4.77
2019-04-11T09:20:55.943Z,1.73
2019-04-11T09:26:20.207Z,6.73
2019-04-11T09:31:42.217Z,2.13
2019-04-11T09:37:05.703Z,4.97
2019-04-11T09:42:28.855Z,11.47
2019-04-11T09:47:51.922Z,3.50
2019-04-11T09:52:56.419Z,2.80
2019-04-11T09:58:01.368Z,2.57
2019-04-11T10:03:25.608Z,3.07
2019-04-11T10:08:49.245Z,2.23
2019-04-11T10:14:09.139Z,4.90
2019-04-11T10:19:31.736Z,2.17
2019-04-11T10:24:55.023Z,1.80
2019-04-11T10:30:17.397Z,3.43
2019-04-11T10:35:40.681Z,2.20
2019-04-11T10:41:13.049Z,1.73
2019-04-11T10:46:36.213Z,4.33
2019-04-11T10:51:50.018Z,1.73
2019-04-11T10:57:16.281Z,4.37
2019-04-11T11:02:37.740Z,3.53
2019-04-11T11:07:44.605Z,2.63
2019-04-11T11:13:18.020Z,1.60
2019-04-11T11:19:15.586Z,3.10
2019-04-11T11:24:09.281Z,2.47
2019-04-11T11:29:45.706Z,2.13
2019-04-11T11:34:57.223Z,2.23
2019-04-11T11:40:38.297Z,5.23
2019-04-11T11:46:01.146Z,3.23
2019-04-11T11:51:10.906Z,5.77
2019-04-11T11:56:15.901Z,4.10
2019-04-11T12:01:20.176Z,6.13
2019-04-11T12:06:25.192Z,4.47
2019-04-11T12:11:30.342Z,4.17
2019-04-11T12:17:03.292Z,4.67
2019-04-11T12:22:06.219Z,7.37
2019-04-11T12:27:29.448Z,4.33
2019-04-11T12:32:34.747Z,4.40
2019-04-11T12:37:43.855Z,3.30
2019-04-11T12:42:48.020Z,2.67
2019-04-11T12:47:55.347Z,2.90
2019-04-11T12:53:10.349Z,3.27
2019-04-11T12:58:33.522Z,4.80
2019-04-11T13:03:55.721Z,5.83
2019-04-11T13:09:16.990Z,2.93
2019-04-11T13:14:38.862Z,3.83
2019-04-11T13:20:11.327Z,7.30
2019-04-11T13:25:33.691Z,2.80
2019-04-11T13:30:57.707Z,3.30
2019-04-11T13:36:23.643Z,2.50
2019-04-11T13:41:59.026Z,3.93
2019-04-11T13:47:11.225Z,3.83
2019-04-11T13:52:34.374Z,4.80
2019-04-11T13:57:57.569Z,2.30
2019-04-11T14:03:18.868Z,13.20
2019-04-11T14:08:27.379Z,20.93
2019-04-11T14:13:38.976Z,11.40
2019-04-11T14:19:07.044Z,3.77
2019-04-11T14:24:24.262Z,1.60
2019-04-11T14:29:59.538Z,8.17
2019-04-11T14:35:22.757Z,2.60
2019-04-11T14:40:33.534Z,3.63
2019-04-11T14:45:55.738Z,5.10
2019-04-11T14:51:15.989Z,3.33
2019-04-11T14:56:21.804Z,5.00
2019-04-11T15:01:27.923Z,2.37
2019-04-11T15:06:34.535Z,5.37
2019-04-11T15:11:53.014Z,8.03
2019-04-11T15:17:10.682Z,7.43
2019-04-11T15:22:24.339Z,7.57
2019-04-11T15:28:07.976Z,3.37
2019-04-11T15:33:30.903Z,3.43
2019-04-11T15:38:47.877Z,3.87
2019-04-11T15:44:11.715Z,4.17
2019-04-11T15:49:33.975Z,3.53
2019-04-11T15:54:57.141Z,7.53
2019-04-11T16:00:29.457Z,4.97
2019-04-11T16:05:52.614Z,4.90
2019-04-11T16:11:14.515Z,3.80
2019-04-11T16:16:20.350Z,5.70
2019-04-11T16:21:32.836Z,3.07
2019-04-11T16:26:50.396Z,5.23
2019-04-11T16:31:55.836Z,8.30
2019-04-11T16:37:02.867Z,3.13
2019-04-11T16:42:10.086Z,2.40
2019-04-11T16:47:31.535Z,6.37
2019-04-11T16:52:38.582Z,3.63
2019-04-11T16:57:44.259Z,3.20
2019-04-11T17:02:49.246Z,7.27
2019-04-11T17:08:15.161Z,3.37
2019-04-11T17:13:19.394Z,3.40
2019-04-11T17:18:23.635Z,4.23
2019-04-11T17:23:27.863Z,3.93
2019-04-11T17:28:32.182Z,4.43
2019-04-11T17:33:36.375Z,4.77
2019-04-11T17:38:40.605Z,11.50
2019-04-11T17:43:47.040Z,11.33
2019-04-11T17:48:50.738Z,13.23
2019-04-11T17:53:55.654Z,15.03
2019-04-11T17:59:00.158Z,12.93
2019-04-11T18:04:04.792Z,15.40
2019-04-11T18:09:12.086Z,15.83
2019-04-11T18:14:16.308Z,13.30
2019-04-11T18:19:20.585Z,15.80
2019-04-11T18:24:24.839Z,15.27
2019-04-11T18:29:29.146Z,13.67
2019-04-11T18:34:34.384Z,10.13
2019-04-11T18:39:38.897Z,13.93
2019-04-11T18:44:43.159Z,10.90
2019-04-11T18:49:47.397Z,12.33
2019-04-11T18:54:51.690Z,14.73
2019-04-11T18:59:55.977Z,10.43
2019-04-11T19:05:02.101Z,12.43
2019-04-11T19:10:07.894Z,10.83
2019-04-11T19:15:13.801Z,14.40
2019-04-11T19:20:19.797Z,11.43
2019-04-11T19:25:24.658Z,18.53
2019-04-11T19:30:29.114Z,15.60
2019-04-11T19:35:33.978Z,11.03
2019-04-11T19:40:38.627Z,13.07
2019-04-11T19:45:43.371Z,11.17
2019-04-11T19:50:47.846Z,9.77
2019-04-11T19:56:11.037Z,10.03
2019-04-11T20:01:15.374Z,9.37
2019-04-11T20:06:19.594Z,11.23
2019-04-11T20:11:23.841Z,11.63
2019-04-11T20:16:28.051Z,11.87
2019-04-11T20:21:32.272Z,12.73
2019-04-11T20:26:36.499Z,10.13
2019-04-11T20:31:40.848Z,9.80
2019-04-11T20:36:45.115Z,12.40
2019-04-11T20:41:53.242Z,12.93
2019-04-11T20:46:55.384Z,11.43
2019-04-11T20:51:59.597Z,13.50
2019-04-11T20:57:03.817Z,13.23
2019-04-11T21:02:08.106Z,15.37
2019-04-11T21:07:12.356Z,12.67
2019-04-11T21:12:18.189Z,14.20
2019-04-11T21:17:22.398Z,10.10
2019-04-11T21:22:26.610Z,11.33
2019-04-11T21:27:30.836Z,12.13
2019-04-11T21:32:35.036Z,11.20
2019-04-11T21:37:39.243Z,10.10
2019-04-11T21:42:43.441Z,11.97
2019-04-11T21:47:47.635Z,8.73
2019-04-11T21:52:51.854Z,8.73
2019-04-11T21:57:56.086Z,11.97
2019-04-11T22:03:00.279Z,8.03
2019-04-11T22:08:04.469Z,13.73
2019-04-11T22:13:10.093Z,8.10
2019-04-11T22:18:16.724Z,9.00
2019-04-11T22:23:20.606Z,9.97
2019-04-11T22:28:25.150Z,6.93
2019-04-11T22:33:42.708Z,9.47
2019-04-11T22:38:46.906Z,7.57
2019-04-11T22:43:51.109Z,13.83
2019-04-11T22:48:55.294Z,8.23
2019-04-11T22:54:00.575Z,10.77
2019-04-11T22:59:05.050Z,10.47
2019-04-11T23:04:09.251Z,7.73
2019-04-11T23:09:13.489Z,10.90
2019-04-11T23:14:17.686Z,10.03
2019-04-11T23:19:21.899Z,7.97
2019-04-11T23:24:26.075Z,10.80
2019-04-11T23:29:30.273Z,10.00
2019-04-11T23:34:34.489Z,12.97
2019-04-11T23:39:38.668Z,11.20
2019-04-11T23:44:42.881Z,11.23
2019-04-11T23:49:47.093Z,11.40
2019-04-11T23:54:51.319Z,14.07
2019-04-11T23:59:55.498Z,8.50
